Welcome to Northern Hawkes Bay. New Zealand.
PWS Header
      nz Flag



Hit Counter


W3C Valid W3C Valid logo


    Wairoa

Select any of the Stations below to visit their websites.










Historic Data from Weather Underground
Select the location of interest below. Wairoa is the default. Please have patience, this Data is slow to load in.
Northern Hawkes Bay Historical Data
Daily Summary for February 5, 2017 Units:  English    Metric   Both
« Previous Day
Next Day »
Daily Weekly Monthly Yearly Custom
  High: Low: Average:
Temperature: 87.1 °F 53.4 °F 68.2 °F
Dew Point: 61.3 °F 52 °F 56.8 °F
Humidity: 97% 39% 70%
Wind Speed: 7.6mph 0mph 2.9mph
Wind Gust: 15.2mph - -
Wind- - SW
Pressure: 30.1 in 30 in -
Precipitation: 0 in    
Historical Graphs
 
 
Tabular Data for February 5, 2017
Time Temperature Dew Point Pressure Wind Wind Speed Wind Gust Humidity Rainfall Rate (Hourly) solar
00:00 59.9 °F 55.4 °F 30 in Calm   2.2 mph 85% 0 in 0 W/m2
00:05 59.7 °F 55.2 °F 30.1 in Calm   1.6 mph 85% 0 in 0 W/m2
00:07 59.7 °F 55.2 °F 30.1 in Calm   0.7 mph 85% 0 in 0 W/m2
00:12 59.5 °F 55.4 °F 30 in Calm   1.6 mph 86% 0 in 0 W/m2
00:17 59.5 °F 55.8 °F 30.1 in Calm   2.2 mph 87% 0 in 0 W/m2
00:22 59.5 °F 55.8 °F 30.1 in Calm   2.2 mph 87% 0 in 0 W/m2
00:27 59.4 °F 55.6 °F 30.1 in Calm   2.2 mph 87% 0 in 0 W/m2
00:32 59.2 °F 55.2 °F 30.1 in Calm     87% 0 in 0 W/m2
00:37 59.2 °F 55.2 °F 30.1 in Calm   0.7 mph 87% 0 in 0 W/m2
00:42 59 °F 55.6 °F 30.1 in Calm   1.6 mph 88% 0 in 0 W/m2
00:47 59 °F 55.6 °F 30.1 in Calm   1.6 mph 88% 0 in 0 W/m2
00:52 59 °F 55.6 °F 30.1 in Calm   1.6 mph 88% 0 in 0 W/m2
00:57 58.8 °F 55.6 °F 30.1 in Calm   1.6 mph 89% 0 in 0 W/m2
01:02 58.8 °F 55.6 °F 30.1 in North 0.7 mph 1.6 mph 89% 0 in 0 W/m2
01:07 58.6 °F 55.8 °F 30.1 in North 1.6 mph 2.2 mph 90% 0 in 0 W/m2
01:12 58.6 °F 55.8 °F 30.1 in North 1.6 mph 3.8 mph 90% 0 in 0 W/m2
01:17 58.5 °F 55.6 °F 30.1 in North 1.6 mph 3.8 mph 90% 0 in 0 W/m2
01:22 58.5 °F 55.6 °F 30.1 in North 2.2 mph 3.8 mph 90% 0 in 0 W/m2
01:27 58.5 °F 55.6 °F 30.1 in NNW 1.6 mph 3.8 mph 90% 0 in 0 W/m2
01:32 58.3 °F 55.4 °F 30 in NNW 1.6 mph 3.8 mph 90% 0 in 0 W/m2
01:37 58.1 °F 55.2 °F 30.1 in NNW 2.2 mph 3.8 mph 90% 0 in 0 W/m2
01:42 57.7 °F 54.9 °F 30.1 in NNW 3.1 mph 5.4 mph 90% 0 in 0 W/m2
01:47 57.6 °F 54.7 °F 30 in NW 1.6 mph 5.4 mph 90% 0 in 0 W/m2
01:52 57.4 °F 54.9 °F 30 in NW 2.2 mph 4.5 mph 91% 0 in 0 W/m2
01:57 57.2 °F 54.7 °F 30 in NNW 2.2 mph 4.5 mph 91% 0 in 0 W/m2
02:02 57.2 °F 54.7 °F 30 in NNW 3.1 mph 4.5 mph 91% 0 in 0 W/m2
02:07 56.8 °F 54.7 °F 30 in NNW 2.2 mph 4.5 mph 92% 0 in 0 W/m2
02:12 56.7 °F 54.3 °F 30 in NNW 3.1 mph 4.5 mph 92% 0 in 0 W/m2
02:17 56.5 °F 54.1 °F 30 in NNW 1.6 mph 3.8 mph 92% 0 in 0 W/m2
02:22 56.5 °F 54.5 °F 30 in NNW 2.2 mph 3.8 mph 93% 0 in 0 W/m2
02:27 56.3 °F 54.3 °F 30 in NNW 3.1 mph 5.4 mph 93% 0 in 0 W/m2
02:32 56.3 °F 54.3 °F 30 in NNW 2.2 mph 5.4 mph 93% 0 in 0 W/m2
02:37 56.3 °F 54.3 °F 30 in NNW 0.7 mph 5.4 mph 93% 0 in 0 W/m2
02:42 56.1 °F 54.1 °F 30 in NNW 2.2 mph 4.5 mph 93% 0 in 0 W/m2
02:47 55.9 °F 54 °F 30 in NNW 3.1 mph 4.5 mph 93% 0 in 0 W/m2
03:03 55.8 °F 54.1 °F 30 in NNW 2.2 mph 4.5 mph 94% 0 in 0 W/m2
03:08 55.9 °F 54.5 °F 30 in NNW 2.2 mph 4.5 mph 95% 0 in 0 W/m2
03:28 55.6 °F 54 °F 30 in NNW 1.6 mph 5.4 mph 94% 0 in 0 W/m2
03:33 55.4 °F 53.8 °F 30 in NNW 1.6 mph 3.8 mph 94% 0 in 0 W/m2
03:38 55.4 °F 53.8 °F 30 in NNW 2.2 mph 3.8 mph 94% 0 in 0 W/m2
03:43 55.2 °F 53.4 °F 30 in NNW 3.1 mph 5.4 mph 94% 0 in 0 W/m2
03:48 55.2 °F 53.4 °F 30 in NNW 3.1 mph 5.4 mph 94% 0 in 0 W/m2
03:53 55 °F 53.4 °F 30 in NNW 3.1 mph 4.5 mph 94% 0 in 0 W/m2
03:58 54.9 °F 53.2 °F 30 in NNW 3.1 mph 5.4 mph 94% 0 in 0 W/m2
04:03 54.9 °F 53.2 °F 30 in NNW 2.2 mph 5.4 mph 94% 0 in 0 W/m2
04:08 54.9 °F 53.4 °F 30 in NNW 3.8 mph 6 mph 95% 0 in 0 W/m2
04:13 55 °F 53.6 °F 30 in NNW 3.1 mph 6.9 mph 95% 0 in 0 W/m2
04:14 55 °F 53.6 °F 30 in NNW 5.4 mph 6.9 mph 95% 0 in 0 W/m2
04:19 55 °F 53.4 °F 30 in NW 3.8 mph 6.9 mph 94% 0 in 0 W/m2
04:25 54.9 °F 52.9 °F 30 in NW 3.1 mph 6.9 mph 93% 0 in 0 W/m2
04:30 54.7 °F 52.7 °F 30 in NNW 2.2 mph 4.5 mph 93% 0 in 0 W/m2
04:31 54.7 °F 52.7 °F 30 in NNW 3.8 mph 4.5 mph 93% 0 in 0 W/m2
04:36 54.5 °F 52.5 °F 30 in NNW 3.1 mph 5.4 mph 93% 0 in 0 W/m2
04:41 54.3 °F 52.3 °F 30 in NNW 3.8 mph 5.4 mph 93% 0 in 0 W/m2
04:46 54.3 °F 52.5 °F 30 in NNW 3.8 mph 6.9 mph 94% 0 in 0 W/m2
04:51 54.3 °F 52.5 °F 30 in NW 2.2 mph 6.9 mph 94% 0 in 0 W/m2
04:56 54.3 °F 52.5 °F 30.1 in NNW 2.2 mph 6 mph 94% 0 in 0 W/m2
05:01 54.3 °F 52.5 °F 30 in North 3.1 mph 5.4 mph 94% 0 in 0 W/m2
05:06 54.3 °F 52.5 °F 30.1 in NNW 2.2 mph 5.4 mph 94% 0 in 0 W/m2
05:11 54.3 °F 52.5 °F 30.1 in NNW 3.1 mph 4.5 mph 94% 0 in 0 W/m2
05:16 54.3 °F 52.5 °F 30.1 in NNW 3.8 mph 4.5 mph 94% 0 in 0 W/m2
05:21 54.3 °F 52.5 °F 30.1 in NNW 3.1 mph 4.5 mph 94% 0 in 0 W/m2
05:26 54.3 °F 52.5 °F 30.1 in North 3.8 mph 5.4 mph 94% 0 in 0 W/m2
05:31 54.1 °F 52.5 °F 30.1 in North 3.1 mph 5.4 mph 94% 0 in 0 W/m2
05:36 54 °F 52.3 °F 30.1 in NNW 2.2 mph 5.4 mph 94% 0 in 0 W/m2
05:41 53.8 °F 52.2 °F 30.1 in NW 2.2 mph 4.5 mph 94% 0 in 0 W/m2
05:46 53.6 °F 52 °F 30.1 in NNW 3.8 mph 4.5 mph 94% 0 in 0 W/m2
05:50 53.4 °F 52 °F 30.1 in NNW 2.2 mph 5.4 mph 95% 0 in 0 W/m2
05:55 53.4 °F 52 °F 30.1 in NNW 5.4 mph 6 mph 95% 0 in 0 W/m2
06:00 53.6 °F 52.2 °F 30.1 in NNW 3.1 mph 6 mph 95% 0 in 0 W/m2
06:05 53.8 °F 52.3 °F 30.1 in NNW 3.8 mph 6 mph 95% 0 in 0 W/m2
06:10 54 °F 52.9 °F 30.1 in NNW 1.6 mph 6 mph 96% 0 in 0 W/m2
06:15 53.6 °F 52.5 °F 30.1 in NNW 2.2 mph 5.4 mph 96% 0 in 0 W/m2
06:20 53.6 °F 52.2 °F 30.1 in NNW 3.1 mph 4.5 mph 95% 0 in 1 W/m2
06:25 53.4 °F 52.3 °F 30.1 in NNW 0.7 mph 4.5 mph 96% 0 in 3 W/m2
06:30 53.4 °F 52.5 °F 30.1 in NNW 2.2 mph 4.5 mph 97% 0 in 6 W/m2
06:35 53.6 °F 52.5 °F 30.1 in NNW 1.6 mph 3.8 mph 96% 0 in 9 W/m2
06:40 53.8 °F 52.7 °F 30.1 in NNW 3.8 mph 5.4 mph 96% 0 in 13 W/m2
06:45 54 °F 52.9 °F 30.1 in NNW 5.4 mph 6.9 mph 96% 0 in 16 W/m2
06:50 54 °F 52.9 °F 30.1 in NNW 5.4 mph 7.6 mph 96% 0 in 21 W/m2
06:55 54.1 °F 52.7 °F 30.1 in NNW 3.1 mph 7.6 mph 95% 0 in 35 W/m2
07:00 54.5 °F 53.1 °F 30.1 in NW 4.5 mph 7.6 mph 95% 0 in 66 W/m2
07:05 55 °F 53.4 °F 30.1 in NNW 3.8 mph 6.9 mph 94% 0 in 74 W/m2
07:10 55.4 °F 53.1 °F 30.1 in NNW 3.8 mph 6.9 mph 92% 0 in 82 W/m2
07:15 55.9 °F 53.4 °F 30.1 in NNW 4.5 mph 7.6 mph 91% 0 in 86 W/m2
07:20 56.3 °F 53.4 °F 30.1 in NNW 3.1 mph 9.2 mph 90% 0 in 91 W/m2
07:25 56.8 °F 53.2 °F 30.1 in NW 6 mph 9.2 mph 88% 0 in 97 W/m2
07:30 57.4 °F 53.6 °F 30.1 in NW 2.2 mph 9.2 mph 87% 0 in 105 W/m2
07:35 58.1 °F 54 °F 30.1 in NNW 4.5 mph 9.2 mph 86% 0 in 113 W/m2
07:40 58.1 °F 53.6 °F 30.1 in NNW 3.8 mph 9.8 mph 85% 0 in 124 W/m2
07:45 58.6 °F 54.1 °F 30.1 in NNW 4.5 mph 9.8 mph 85% 0 in 136 W/m2
07:50 59.4 °F 54.5 °F 30.1 in NNW 5.4 mph 8.3 mph 84% 0 in 149 W/m2
07:55 59.4 °F 54 °F 30.1 in NNW 5.4 mph 9.2 mph 82% 0 in 161 W/m2
08:00 59.9 °F 54.3 °F 30.1 in NNW 4.5 mph 9.2 mph 82% 0 in 173 W/m2
08:05 60.3 °F 54.3 °F 30.1 in North 4.5 mph 9.2 mph 81% 0 in 183 W/m2
08:10 61.2 °F 55 °F 30.1 in North 3.1 mph 6.9 mph 80% 0 in 196 W/m2
08:15 62.2 °F 55 °F 30.1 in NNW 3.8 mph 6.9 mph 77% 0 in 209 W/m2
08:20 62.4 °F 54.3 °F 30.1 in NNW 4.5 mph 8.3 mph 75% 0 in 222 W/m2
08:25 62.8 °F 54.3 °F 30.1 in NNW 4.5 mph 8.3 mph 74% 0 in 234 W/m2
08:30 63.3 °F 54.5 °F 30.1 in NNW 4.5 mph 7.6 mph 73% 0 in 246 W/m2
08:35 64.2 °F 55 °F 30.1 in NNW 2.2 mph 6.9 mph 72% 0 in 260 W/m2
08:40 65.3 °F 55.2 °F 30.1 in NNW 3.8 mph 6 mph 70% 0 in 275 W/m2
08:45 65.5 °F 54.7 °F 30.1 in NNW 3.1 mph 6.9 mph 68% 0 in 289 W/m2
08:50 65.8 °F 54.7 °F 30.1 in NNW 6 mph 6.9 mph 67% 0 in 303 W/m2
08:55 65.8 °F 54.7 °F 30.1 in NNW 2.2 mph 6.9 mph 67% 0 in 316 W/m2
09:14 68.5 °F 54.7 °F 30.1 in North 3.1 mph 6 mph 61% 0 in 377 W/m2
09:19 69.8 °F 54.9 °F 30.1 in North 3.1 mph 5.4 mph 59% 0 in 394 W/m2
09:25 69.8 °F 54 °F 30.1 in North 1.6 mph 4.5 mph 57% 0 in 414 W/m2
09:30 70.3 °F 54.3 °F 30.1 in NNE 3.1 mph 6.9 mph 57% 0 in 433 W/m2
09:35 70.9 °F 54.3 °F 30.1 in North 2.2 mph 6.9 mph 56% 0 in 452 W/m2
09:40 71.4 °F 54.9 °F 30.1 in NNW 1.6 mph 5.4 mph 56% 0 in 471 W/m2
09:45 71.6 °F 54.7 °F 30.1 in Calm   4.5 mph 55% 0 in 490 W/m2
09:50 73.2 °F 55.6 °F 30.1 in NNW 0.7 mph 4.5 mph 54% 0 in 513 W/m2
09:55 74.1 °F 55.9 °F 30.1 in North 1.6 mph 4.5 mph 53% 0 in 535 W/m2
10:00 74.5 °F 55.8 °F 30.1 in NNW 3.1 mph 4.5 mph 52% 0 in 554 W/m2
10:05 74.8 °F 57 °F 30.1 in NNW 3.1 mph 4.5 mph 54% 0 in 574 W/m2
10:10 75 °F 56.1 °F 30.1 in North 1.6 mph 4.5 mph 52% 0 in 594 W/m2
10:15 75.2 °F 54.9 °F 30.1 in North 0.7 mph 7.6 mph 49% 0 in 613 W/m2
10:20 75.6 °F 54.5 °F 30.1 in North 2.2 mph 7.6 mph 48% 0 in 631 W/m2
10:25 75.6 °F 54.5 °F 30.1 in NW 2.2 mph 4.5 mph 48% 0 in 649 W/m2
10:30 74.7 °F 56.8 °F 30.1 in South 6.9 mph 9.8 mph 54% 0 in 665 W/m2
10:35 72.3 °F 56.7 °F 30.1 in South 3.1 mph 10.7 mph 58% 0 in 673 W/m2
10:40 72 °F 57.4 °F 30.1 in South 3.8 mph 10.7 mph 60% 0 in 690 W/m2
10:45 71.6 °F 57.6 °F 30.1 in South 5.4 mph 9.2 mph 61% 0 in 705 W/m2
10:50 72 °F 57.4 °F 30.1 in South 7.6 mph 9.8 mph 60% 0 in 728 W/m2
10:55 71.8 °F 56.7 °F 30.1 in SSW 6.9 mph 9.8 mph 59% 0 in 743 W/m2
11:00 72 °F 57.4 °F 30.1 in SW 5.4 mph 9.8 mph 60% 0 in 770 W/m2
11:05 72.7 °F 58.5 °F 30.1 in SSW 3.1 mph 8.3 mph 61% 0 in 801 W/m2
11:10 73.2 °F 56.7 °F 30.1 in South 3.8 mph 9.8 mph 56% 0 in 820 W/m2
11:15 72.9 °F 55.2 °F 30.1 in South 3.1 mph 9.8 mph 54% 0 in 839 W/m2
11:20 72.7 °F 55 °F 30.1 in SSE 6.9 mph 9.2 mph 54% 0 in 852 W/m2
11:25 73.2 °F 55.6 °F 30.1 in South 6.9 mph 9.8 mph 54% 0 in 867 W/m2
11:30 73.8 °F 57 °F 30.1 in South 2.2 mph 9.8 mph 56% 0 in 882 W/m2
11:35 74.1 °F 57.6 °F 30.1 in South 5.4 mph 9.8 mph 56% 0 in 895 W/m2
11:40 72.9 °F 56.3 °F 30.1 in South 4.5 mph 10.7 mph 56% 0 in 901 W/m2
11:45 72.9 °F 55.2 °F 30.1 in SSE 5.4 mph 10.7 mph 54% 0 in 911 W/m2
11:50 73 °F 56.5 °F 30.1 in SSE 4.5 mph 9.8 mph 56% 0 in 916 W/m2
11:55 73.6 °F 56.5 °F 30.1 in SSE 3.1 mph 9.8 mph 55% 0 in 924 W/m2
12:00 73.8 °F 56.1 °F 30.1 in SE 6.9 mph 10.7 mph 54% 0 in 936 W/m2
12:05 73.4 °F 56.8 °F 30.1 in SSE 6 mph 10.7 mph 56% 0 in 937 W/m2
12:10 73.2 °F 57 °F 30.1 in South 4.5 mph 12.1 mph 57% 0 in 941 W/m2
12:15 73.2 °F 57.6 °F 30.1 in South 4.5 mph 12.1 mph 58% 0 in 945 W/m2
12:20 74.1 °F 57 °F 30.1 in South 5.4 mph 10.7 mph 55% 0 in 952 W/m2
12:25 73.9 °F 57.4 °F 30.1 in SE 5.4 mph 9.8 mph 56% 0 in 955 W/m2
12:30 74.1 °F 57.6 °F 30.1 in SE 3.8 mph 9.8 mph 56% 0 in 959 W/m2
12:35 74.1 °F 57.9 °F 30.1 in SE 3.1 mph 10.7 mph 57% 0 in 962 W/m2
12:40 74.1 °F 57.9 °F 30.1 in SE 4.5 mph 11.4 mph 57% 0 in 964 W/m2
12:45 73.8 °F 58.1 °F 30.1 in SSE 3.1 mph 11.4 mph 58% 0 in 961 W/m2
12:50 74.7 °F 58.5 °F 30.1 in SSE 4.5 mph 10.7 mph 57% 0 in 966 W/m2
12:55 75 °F 58.8 °F 30.1 in SE 3.1 mph 9.8 mph 57% 0 in 968 W/m2
13:00 75.2 °F 59 °F 30.1 in SE 3.1 mph 9.8 mph 57% 0 in 966 W/m2
13:05 75 °F 58.8 °F 30.1 in SSE 6.9 mph 10.7 mph 57% 0 in 964 W/m2
13:10 74.8 °F 58.6 °F 30.1 in SE 4.5 mph 10.7 mph 57% 0 in 957 W/m2
13:15 74.7 °F 59.4 °F 30.1 in SE 4.5 mph 12.1 mph 59% 0 in 955 W/m2
13:20 74.3 °F 59.2 °F 30.1 in SE 3.8 mph 12.1 mph 59% 0 in 950 W/m2
13:25 74.7 °F 59.4 °F 30.1 in SE 3.8 mph 13.6 mph 59% 0 in 946 W/m2
13:30 74.7 °F 60.4 °F 30.1 in SE 6.9 mph 13.6 mph 61% 0 in 942 W/m2
13:35 74.5 °F 60.6 °F 30.1 in SE 5.4 mph 9.8 mph 62% 0 in 935 W/m2
13:40 74.5 °F 60.6 °F 30.1 in SE 3.8 mph 10.7 mph 62% 0 in 931 W/m2
13:45 74.8 °F 61.3 °F 30.1 in SE 7.6 mph 11.4 mph 63% 0 in 928 W/m2
13:50 74.7 °F 61.3 °F 30.1 in SE 5.4 mph 11.4 mph 63% 0 in 916 W/m2
13:55 75.6 °F 61.2 °F 30.1 in SE 5.4 mph 10.7 mph 61% 0 in 911 W/m2
14:00 75.4 °F 61 °F 30.1 in SE 5.4 mph 11.4 mph 61% 0 in 903 W/m2
14:05 75.2 °F 59.4 °F 30.1 in SE 7.6 mph 14.5 mph 58% 0 in 896 W/m2
14:10 75.4 °F 59.5 °F 30.1 in SE 5.4 mph 14.5 mph 58% 0 in 889 W/m2
14:15 76.3 °F 60.1 °F 30.1 in ESE 6 mph 13 mph 57% 0 in 882 W/m2
14:20 77.2 °F 58.3 °F 30.1 in SE 6 mph 13 mph 52% 0 in 874 W/m2
14:25 77.7 °F 58.6 °F 30.1 in SE 3.1 mph 13 mph 52% 0 in 872 W/m2
14:30 78.3 °F 57.6 °F 30.1 in SSE 5.4 mph 14.5 mph 49% 0 in 866 W/m2
14:35 78.4 °F 57.7 °F 30.1 in SE 4.5 mph 14.5 mph 49% 0 in 853 W/m2
14:40 78.1 °F 57.9 °F 30.1 in ESE 5.4 mph 13 mph 50% 0 in 840 W/m2
14:46 77.9 °F 58.5 °F 30.1 in ESE 6 mph 13 mph 51% 0 in 825 W/m2
14:51 78.1 °F 59.2 °F 30.1 in SE 6.9 mph 13 mph 52% 0 in 815 W/m2
14:56 77.7 °F 59.4 °F 30 in SE 4.5 mph 13.6 mph 53% 0 in 774 W/m2
15:01 78.1 °F 59.5 °F 30.1 in SE 7.6 mph 13.6 mph 53% 0 in 790 W/m2
15:06 78.1 °F 58.5 °F 30.1 in SE 5.4 mph 13.6 mph 51% 0 in 779 W/m2
15:11 78.4 °F 58.8 °F 30 in ESE 7.6 mph 13.6 mph 51% 0 in 768 W/m2
15:16 78.6 °F 58.5 °F 30 in ESE 5.4 mph 13.6 mph 50% 0 in 741 W/m2
15:21 79 °F 57 °F 30 in ESE 7.6 mph 13.6 mph 47% 0 in 710 W/m2
15:26 79 °F 57 °F 30 in SE 7.6 mph 15.2 mph 47% 0 in 680 W/m2
15:31 79.5 °F 57.6 °F 30 in ESE 6 mph 15.2 mph 47% 0 in 691 W/m2
15:36 80.1 °F 58.1 °F 30 in ESE 7.6 mph 12.1 mph 47% 0 in 660 W/m2
15:41 80.6 °F 57.4 °F 30 in ESE 4.5 mph 9.8 mph 45% 0 in 649 W/m2
15:46 81.1 °F 57.2 °F 30 in SE 6 mph 10.7 mph 44% 0 in 617 W/m2
15:51 81.3 °F 57.4 °F 30 in SSE 3.8 mph 13 mph 44% 0 in 432 W/m2
15:56 82 °F 57.9 °F 30 in SE 5.4 mph 13 mph 44% 0 in 677 W/m2
16:01 82.8 °F 59.4 °F 30 in ESE 3.8 mph 11.4 mph 45% 0 in 665 W/m2
16:06 83.1 °F 59.5 °F 30 in ESE 4.5 mph 10.7 mph 45% 0 in 656 W/m2
16:11 82.9 °F 59.5 °F 30 in ESE 5.4 mph 9.8 mph 45% 0 in 473 W/m2
16:16 82.6 °F 59.2 °F 30 in ESE 4.5 mph 11.4 mph 45% 0 in 444 W/m2
16:21 82.6 °F 59.2 °F 30 in SE 6.9 mph 11.4 mph 45% 0 in 471 W/m2
16:26 82.6 °F 59.2 °F 30 in ESE 6 mph 11.4 mph 45% 0 in 601 W/m2
16:31 82.4 °F 59 °F 30 in East 5.4 mph 10.7 mph 45% 0 in 480 W/m2
16:36 82.8 °F 59.4 °F 30 in ESE 4.5 mph 13 mph 45% 0 in 534 W/m2
16:41 82.9 °F 59.5 °F 30 in ESE 6 mph 13 mph 45% 0 in 562 W/m2
16:46 82.8 °F 58.6 °F 30 in ESE 6 mph 9.8 mph 44% 0 in 550 W/m2
16:51 83.5 °F 58.6 °F 30 in SE 3.1 mph 10.7 mph 43% 0 in 538 W/m2
16:56 84 °F 59.2 °F 30 in SE 5.4 mph 10.7 mph 43% 0 in 526 W/m2
17:01 83.8 °F 59 °F 30 in ESE 5.4 mph 9.8 mph 43% 0 in 513 W/m2
17:06 83.8 °F 59 °F 30 in ESE 4.5 mph 9.8 mph 43% 0 in 494 W/m2
17:11 84.7 °F 58.5 °F 30 in SE 3.8 mph 9.2 mph 41% 0 in 481 W/m2
17:16 84.2 °F 57.9 °F 30 in ESE 3.1 mph 9.8 mph 41% 0 in 464 W/m2
17:21 85.5 °F 59.2 °F 30 in ESE 3.8 mph 9.8 mph 41% 0 in 451 W/m2
17:26 85.8 °F 58.8 °F 30 in ESE 2.2 mph 6.9 mph 40% 0 in 436 W/m2
17:31 87.1 °F 59.2 °F 30 in ESE 2.2 mph 6 mph 39% 0 in 422 W/m2
17:36 86.7 °F 59.5 °F 30 in SE 1.6 mph 9.2 mph 40% 0 in 409 W/m2
17:41 86.5 °F 58.6 °F 30 in ESE 3.1 mph 9.2 mph 39% 0 in 391 W/m2
17:46 86.5 °F 59.4 °F 30 in ESE 2.2 mph 6 mph 40% 0 in 377 W/m2
17:51 87.1 °F 59.2 °F 30 in SE 3.1 mph 6 mph 39% 0 in 361 W/m2
17:56 86.2 °F 59.2 °F 30 in ESE 1.6 mph 6 mph 40% 0 in 346 W/m2
18:01 86.4 °F 59.2 °F 30 in ESE 2.2 mph 6 mph 40% 0 in 332 W/m2
18:06 86 °F 59.5 °F 30 in SE 6 mph 7.6 mph 41% 0 in 318 W/m2
18:11 84.9 °F 60.6 °F 30 in SSE 2.2 mph 7.6 mph 44% 0 in 299 W/m2
18:16 85.6 °F 61.3 °F 30 in SSE 4.5 mph 7.6 mph 44% 0 in 286 W/m2
18:21 84 °F 60.4 °F 30 in SSE 5.4 mph 9.8 mph 45% 0 in 270 W/m2
18:26 83.7 °F 60.6 °F 30 in SSE 5.4 mph 9.8 mph 46% 0 in 255 W/m2
18:31 83.3 °F 60.4 °F 30 in SSE 3.8 mph 9.8 mph 46% 0 in 242 W/m2
18:36 82.6 °F 60.4 °F 30 in South 6.9 mph 9.2 mph 47% 0 in 228 W/m2
18:41 81.5 °F 59.4 °F 30 in SSE 6 mph 9.2 mph 47% 0 in 203 W/m2
18:46 79.9 °F 59.5 °F 30 in SSE 3.1 mph 9.2 mph 50% 0 in 72 W/m2
18:51 78.8 °F 59.2 °F 30 in SSE 3.8 mph 7.6 mph 51% 0 in 119 W/m2
18:56 79.3 °F 58.6 °F 30 in SE 3.8 mph 8.3 mph 49% 0 in 121 W/m2
19:01 79.9 °F 58.5 °F 30 in SSE 3.1 mph 8.3 mph 48% 0 in 96 W/m2
19:06 78.6 °F 59 °F 30 in South 0.7 mph 6 mph 51% 0 in 48 W/m2
19:11 78.3 °F 59.7 °F 30 in Calm   6 mph 53% 0 in 92 W/m2
19:16 78.8 °F 58.6 °F 30 in ESE 1.6 mph 5.4 mph 50% 0 in 47 W/m2
19:21 77.9 °F 59.4 °F 30 in Calm   4.5 mph 53% 0 in 43 W/m2
19:26 77.4 °F 60.1 °F 30 in SSE 2.2 mph 4.5 mph 55% 0 in 43 W/m2
19:31 76.6 °F 60.8 °F 30 in SW 2.2 mph 4.5 mph 58% 0 in 29 W/m2
19:36 75.4 °F 61 °F 30 in SW 3.1 mph 4.5 mph 61% 0 in 23 W/m2
19:41 74.7 °F 60.8 °F 30 in SW 2.2 mph 4.5 mph 62% 0 in 35 W/m2
19:46 74.7 °F 59.9 °F 30 in Calm   4.5 mph 60% 0 in 26 W/m2
19:51 74.8 °F 60.1 °F 30 in Calm   4.5 mph 60% 0 in 26 W/m2
19:56 74.7 °F 60.4 °F 30 in Calm   1.6 mph 61% 0 in 26 W/m2
20:01 74.5 °F 60.3 °F 30 in Calm   1.6 mph 61% 0 in 18 W/m2
20:06 73.9 °F 60.1 °F 30 in Calm   0.7 mph 62% 0 in 14 W/m2
20:11 73 °F 59.7 °F 30 in Calm   0.7 mph 63% 0 in 12 W/m2
20:16 72.3 °F 59.5 °F 30 in Calm     64% 0 in 7 W/m2
20:21 71.6 °F 58.8 °F 30 in Calm     64% 0 in 4 W/m2
20:26 71.2 °F 59.4 °F 30 in Calm   1.6 mph 66% 0 in 2 W/m2
20:31 70.7 °F 58.8 °F 30 in Calm   1.6 mph 66% 0 in 0 W/m2
20:36 70.2 °F 58.6 °F 30.1 in WNW 0.7 mph 1.6 mph 67% 0 in 0 W/m2
20:42 70 °F 59.4 °F 30.1 in NW 0.7 mph 2.2 mph 69% 0 in 0 W/m2
20:47 69.8 °F 60.4 °F 30.1 in NNW 3.1 mph 4.5 mph 72% 0 in 0 W/m2
20:52 69.8 °F 60.1 °F 30.1 in NW 0.7 mph 4.5 mph 71% 0 in 0 W/m2
20:57 69.6 °F 60.3 °F 30.1 in Calm   3.1 mph 72% 0 in 0 W/m2
21:02 69.3 °F 60.3 °F 30.1 in Calm   2.2 mph 73% 0 in 0 W/m2
21:07 69.1 °F 60.1 °F 30.1 in Calm   0.7 mph 73% 0 in 0 W/m2
21:12 68.9 °F 60.3 °F 30.1 in Calm   1.6 mph 74% 0 in 0 W/m2
21:17 68.5 °F 59.9 °F 30.1 in Calm   1.6 mph 74% 0 in 0 W/m2
21:22 68.2 °F 59.5 °F 30.1 in Calm   0.7 mph 74% 0 in 0 W/m2
21:27 68 °F 59.7 °F 30.1 in SW 0.7 mph 1.6 mph 75% 0 in 0 W/m2
21:32 67.8 °F 60.4 °F 30.1 in Calm   1.6 mph 77% 0 in 0 W/m2
21:37 67.5 °F 59.7 °F 30.1 in Calm   1.6 mph 76% 0 in 0 W/m2
21:42 67.1 °F 59.4 °F 30.1 in Calm   0.7 mph 76% 0 in 0 W/m2
21:47 66.9 °F 59.5 °F 30.1 in Calm   0.7 mph 77% 0 in 0 W/m2
21:52 66.7 °F 59.4 °F 30.1 in Calm   0.7 mph 77% 0 in 0 W/m2
21:57 66.6 °F 59.5 °F 30.1 in Calm   0.7 mph 78% 0 in 0 W/m2
22:02 66.7 °F 60.1 °F 30.1 in Calm   1.6 mph 79% 0 in 0 W/m2
22:07 66.7 °F 60.1 °F 30.1 in Calm   1.6 mph 79% 0 in 0 W/m2
22:12 66.4 °F 59.7 °F 30.1 in Calm   0.7 mph 79% 0 in 0 W/m2
22:17 66.4 °F 60.1 °F 30.1 in Calm     80% 0 in 0 W/m2
22:22 66.6 °F 60.6 °F 30.1 in Calm   1.6 mph 81% 0 in 0 W/m2
22:27 66.4 °F 60.4 °F 30.1 in Calm   1.6 mph 81% 0 in 0 W/m2
22:32 66 °F 60.1 °F 30.1 in Calm   0.7 mph 81% 0 in 0 W/m2
22:37 65.7 °F 59.7 °F 30.1 in Calm     81% 0 in 0 W/m2
22:42 65.5 °F 59.9 °F 30.1 in Calm     82% 0 in 0 W/m2
22:47 65.3 °F 60.1 °F 30.1 in Calm     83% 0 in 0 W/m2
22:52 65.1 °F 59.7 °F 30.1 in Calm     83% 0 in 0 W/m2
22:57 64.9 °F 59.7 °F 30.1 in Calm     83% 0 in 0 W/m2
23:02 64.6 °F 59.7 °F 30.1 in Calm     84% 0 in 0 W/m2
23:07 64.4 °F 59.7 °F 30.1 in Calm     85% 0 in 0 W/m2
23:12 64.2 °F 59.4 °F 30.1 in Calm     84% 0 in 0 W/m2
23:17 64 °F 59.2 °F 30.1 in Calm     84% 0 in 0 W/m2
23:22 63.9 °F 59.4 °F 30.1 in Calm     85% 0 in 0 W/m2
23:27 63.9 °F 59.4 °F 30.1 in Calm     85% 0 in 0 W/m2
23:32 63.7 °F 59.4 °F 30.1 in Calm     86% 0 in 0 W/m2
23:37 63.9 °F 59.9 °F 30.1 in Calm     87% 0 in 0 W/m2
23:42 63.7 °F 59.7 °F 30.1 in Calm     87% 0 in 0 W/m2
23:47 63.7 °F 59.7 °F 30.1 in Calm     87% 0 in 0 W/m2
23:52 63.5 °F 59.5 °F 30.1 in Calm     87% 0 in 0 W/m2
23:57 63.3 °F 59.4 °F 30.1 in Calm     87% 0 in 0 W/m2
Northern Hawkes Bay. New Zealand Historic Data
Compliments of Weather Underground - 2.25 mb